SHEQ weather

El Conquistador Heliport
Santiago, Santiago Metropolitan Region, Chile

Public forecast

Using degrees Celsius for public forecast. Weather courtesy of forecast.io.

METAR (pilot weather report)

Closest report is Comodoro Arturo Merino Benítez International Airport, 6.9 nm (12.8 km) WSW. Retrieved 2019/07/21 09:00 UTC (52 minutes ago):

SCEL 210900Z 00000KT 9999 SCT090 BKN160 07/04 Q1014 NOSIG

TAF (pilot weather forecast)

Closest forecast is Comodoro Arturo Merino Benítez International Airport, 6.9 nm (12.8 km) WSW. Retrieved 2019/07/21 06:00 UTC (4 hours ago):

TAF SCEL 210410Z 2106/2206 16004KT 9999 FEW080 BKN180 TX09/2119Z TN05/2110Z BECMG 2108/2110 SCT050 BKN100 BECMG 2110/2112 01004KT 8000 -SHRA BKN020 OVC050 TEMPO 2113/2118 36008KT 5000 RA FEW015 SCT025 OVC040 BECMG 2119/2121 17006KT SCT025 BKN050 BECMG 2200/2202 9999 NSW FEW025 SCT050